createdAt,value
2018-11-10T00:00:48.471Z,21.30
2018-11-10T00:03:15.739Z,23.27
2018-11-10T00:05:42.929Z,22.30
2018-11-10T00:08:10.183Z,22.77
2018-11-10T00:10:37.334Z,23.47
2018-11-10T00:13:07.473Z,22.10
2018-11-10T00:15:34.650Z,23.10
2018-11-10T00:18:01.851Z,24.10
2018-11-10T00:20:29.001Z,24.10
2018-11-10T00:22:56.162Z,22.97
2018-11-10T00:25:23.336Z,23.07
2018-11-10T00:27:51.070Z,21.27
2018-11-10T00:30:18.882Z,23.30
2018-11-10T00:32:46.477Z,23.23
2018-11-10T00:35:13.783Z,23.40
2018-11-10T00:37:41.126Z,23.30
2018-11-10T00:40:09.193Z,23.97
2018-11-10T00:42:37.065Z,22.40
2018-11-10T00:45:04.528Z,24.20
2018-11-10T00:47:31.708Z,24.03
2018-11-10T00:49:58.949Z,23.10
2018-11-10T00:52:26.128Z,23.40
2018-11-10T00:54:53.344Z,25.00
2018-11-10T00:57:20.505Z,24.83
2018-11-10T00:59:47.800Z,23.73
2018-11-10T01:02:14.988Z,22.53
2018-11-10T01:04:42.341Z,24.57
2018-11-10T01:07:09.524Z,23.50
2018-11-10T01:09:36.715Z,23.93
2018-11-10T01:12:04.592Z,23.10
2018-11-10T01:14:31.778Z,24.53
2018-11-10T01:16:58.941Z,24.20
2018-11-10T01:19:26.084Z,23.97
2018-11-10T01:21:53.241Z,25.53
2018-11-10T01:24:20.425Z,24.10
2018-11-10T01:26:47.604Z,25.30
2018-11-10T01:29:14.763Z,23.23
2018-11-10T01:31:41.910Z,24.60
2018-11-10T01:34:09.082Z,23.93
2018-11-10T01:36:36.216Z,23.87
2018-11-10T01:39:04.925Z,23.47
2018-11-10T01:41:32.068Z,23.23
2018-11-10T01:43:59.231Z,25.20
2018-11-10T01:46:26.380Z,23.73
2018-11-10T01:48:53.556Z,24.07
2018-11-10T01:51:20.693Z,25.87
2018-11-10T01:53:47.941Z,23.80
2018-11-10T01:56:15.096Z,24.23
2018-11-10T01:58:42.240Z,24.10
2018-11-10T02:01:09.401Z,25.00
2018-11-10T02:03:36.563Z,24.73
2018-11-10T02:06:03.738Z,22.87
2018-11-10T02:08:30.905Z,22.50
2018-11-10T02:10:58.063Z,24.13
2018-11-10T02:13:25.222Z,25.03
2018-11-10T02:15:52.368Z,24.00
2018-11-10T02:18:19.520Z,24.33
2018-11-10T02:20:46.708Z,24.27
2018-11-10T02:23:13.881Z,23.30
2018-11-10T02:25:41.054Z,25.10
2018-11-10T02:28:08.248Z,24.60
2018-11-10T02:30:35.418Z,23.50
2018-11-10T02:33:02.590Z,24.57
2018-11-10T02:35:29.767Z,24.77
2018-11-10T02:37:56.952Z,23.97
2018-11-10T02:40:24.113Z,23.97
2018-11-10T02:42:51.272Z,24.57
2018-11-10T02:45:18.459Z,25.17
2018-11-10T02:47:45.620Z,25.27
2018-11-10T02:50:12.805Z,24.97
2018-11-10T02:52:40.093Z,25.23
2018-11-10T02:55:07.839Z,24.47
2018-11-10T02:57:35.038Z,23.77
2018-11-10T03:00:02.209Z,24.27
2018-11-10T03:02:29.381Z,22.63
2018-11-10T03:04:56.537Z,24.03
2018-11-10T03:07:23.700Z,24.37
2018-11-10T03:09:50.863Z,23.93
2018-11-10T03:12:18.041Z,24.27
2018-11-10T03:14:45.196Z,24.03
2018-11-10T03:17:12.354Z,25.30
2018-11-10T03:19:39.644Z,25.07
2018-11-10T03:22:06.796Z,26.97
2018-11-10T03:24:33.972Z,25.83
2018-11-10T03:27:01.126Z,25.97
2018-11-10T03:29:28.286Z,25.90
2018-11-10T03:31:55.501Z,24.73
2018-11-10T03:34:22.680Z,23.40
2018-11-10T03:36:49.848Z,27.17
2018-11-10T03:39:17.024Z,25.70
2018-11-10T03:41:44.189Z,25.77
2018-11-10T03:44:11.339Z,23.80
2018-11-10T03:46:38.498Z,24.80
2018-11-10T03:49:05.664Z,24.90
2018-11-10T03:51:32.854Z,25.00
2018-11-10T03:54:00.257Z,25.40
2018-11-10T03:56:27.408Z,25.77
2018-11-10T03:58:54.577Z,27.70
2018-11-10T04:01:21.740Z,28.80
2018-11-10T04:03:48.922Z,29.07
2018-11-10T04:06:16.241Z,31.13
2018-11-10T04:08:43.421Z,29.60
2018-11-10T04:11:10.559Z,30.93
2018-11-10T04:13:37.736Z,29.50
2018-11-10T04:16:04.932Z,28.70
2018-11-10T04:18:32.113Z,30.00
2018-11-10T04:20:59.281Z,29.07
2018-11-10T04:23:26.440Z,31.67
2018-11-10T04:25:53.616Z,31.47
2018-11-10T04:28:20.784Z,31.20
2018-11-10T04:30:47.983Z,32.60
2018-11-10T04:33:15.162Z,32.80
2018-11-10T04:35:42.315Z,32.53
2018-11-10T04:38:09.469Z,32.27
2018-11-10T04:40:36.633Z,31.43
2018-11-10T04:43:04.040Z,32.53
2018-11-10T04:45:31.209Z,34.53
2018-11-10T04:47:58.345Z,32.60
2018-11-10T04:50:25.507Z,32.43
2018-11-10T04:52:52.641Z,33.27
2018-11-10T04:55:19.816Z,31.27
2018-11-10T04:57:46.964Z,32.40
2018-11-10T05:00:14.834Z,32.20
2018-11-10T05:02:42.677Z,30.20
2018-11-10T05:05:09.868Z,33.40
2018-11-10T05:07:37.388Z,31.20
2018-11-10T05:10:05.497Z,32.60
2018-11-10T05:12:32.667Z,31.33
2018-11-10T05:14:59.844Z,33.10
2018-11-10T05:17:27.004Z,32.33
2018-11-10T05:19:54.165Z,32.43
2018-11-10T05:22:21.336Z,33.23
2018-11-10T05:24:48.473Z,33.40
2018-11-10T05:27:15.652Z,31.73
2018-11-10T05:29:42.813Z,33.27
2018-11-10T05:32:11.456Z,31.93
2018-11-10T05:34:38.676Z,32.70
2018-11-10T05:37:05.848Z,32.23
2018-11-10T05:39:33.006Z,33.90
2018-11-10T05:42:00.179Z,33.77
2018-11-10T05:44:27.352Z,32.77
2018-11-10T05:46:54.497Z,32.30
2018-11-10T05:49:21.648Z,30.27
2018-11-10T05:51:48.816Z,32.30
2018-11-10T05:54:16.027Z,30.13
2018-11-10T05:56:43.204Z,32.57
2018-11-10T05:59:10.371Z,31.13
2018-11-10T06:01:37.524Z,31.77
2018-11-10T06:04:04.684Z,31.37
2018-11-10T06:06:31.855Z,32.47
2018-11-10T06:08:59.493Z,32.33
2018-11-10T06:11:26.616Z,32.73
2018-11-10T06:13:53.778Z,31.70
2018-11-10T06:16:20.940Z,31.43
2018-11-10T06:18:48.130Z,31.67
2018-11-10T06:21:15.260Z,33.77
2018-11-10T06:23:42.401Z,31.57
2018-11-10T06:26:09.617Z,32.77
2018-11-10T06:28:36.752Z,32.50
2018-11-10T06:31:04.621Z,31.00
2018-11-10T06:33:31.829Z,29.43
2018-11-10T06:35:58.956Z,29.63
2018-11-10T06:38:26.119Z,28.00
2018-11-10T06:40:53.303Z,28.63
2018-11-10T06:43:20.455Z,27.90
2018-11-10T06:45:47.693Z,28.30
2018-11-10T06:48:15.051Z,27.00
2018-11-10T06:50:42.484Z,25.57
2018-11-10T06:53:09.651Z,28.53
2018-11-10T06:55:36.805Z,26.97
2018-11-10T06:58:04.189Z,27.37
2018-11-10T07:00:31.368Z,26.20
2018-11-10T07:02:58.538Z,27.40
2018-11-10T07:05:25.697Z,26.70
2018-11-10T07:07:52.869Z,26.87
2018-11-10T07:10:20.037Z,27.40
2018-11-10T07:12:47.205Z,26.33
2018-11-10T07:15:14.356Z,26.27
2018-11-10T07:17:41.551Z,24.47
2018-11-10T07:20:08.685Z,26.23
2018-11-10T07:22:35.839Z,25.17
2018-11-10T07:25:03.476Z,27.57
2018-11-10T07:27:30.542Z,26.77
2018-11-10T07:29:57.704Z,27.20
2018-11-10T07:32:24.865Z,26.77
2018-11-10T07:34:52.009Z,28.50
2018-11-10T07:37:19.275Z,28.40
2018-11-10T07:39:46.392Z,30.93
2018-11-10T07:42:13.567Z,27.83
2018-11-10T07:44:40.724Z,29.10
2018-11-10T07:47:07.893Z,28.73
2018-11-10T07:49:35.057Z,28.37
2018-11-10T07:52:02.204Z,30.10
2018-11-10T07:54:29.361Z,27.03
2018-11-10T07:56:56.520Z,28.80
2018-11-10T07:59:23.686Z,27.83
2018-11-10T08:01:50.859Z,28.57
2018-11-10T08:04:18.056Z,26.67
2018-11-10T08:06:45.220Z,25.80
2018-11-10T08:09:12.474Z,25.13
2018-11-10T08:11:39.969Z,25.30
2018-11-10T08:14:07.488Z,25.83
2018-11-10T08:16:34.955Z,26.00
2018-11-10T08:19:02.117Z,26.50
2018-11-10T08:21:29.277Z,24.70
2018-11-10T08:23:56.441Z,26.37
2018-11-10T08:26:23.628Z,26.30
2018-11-10T08:28:50.785Z,27.20
2018-11-10T08:31:18.010Z,26.27
2018-11-10T08:33:45.140Z,27.60
2018-11-10T08:36:12.281Z,27.90
2018-11-10T08:38:39.445Z,28.50
2018-11-10T08:41:06.608Z,27.93
2018-11-10T08:43:33.828Z,27.93
2018-11-10T08:46:00.999Z,29.07
2018-11-10T08:48:28.157Z,28.33
2018-11-10T08:50:55.327Z,29.47
2018-11-10T08:53:22.465Z,28.07
2018-11-10T08:55:49.656Z,29.13
2018-11-10T08:58:16.806Z,29.63
2018-11-10T09:00:43.972Z,30.33
2018-11-10T09:03:11.140Z,26.30
2018-11-10T09:05:38.285Z,27.43
2018-11-10T09:08:05.453Z,28.87
2018-11-10T09:10:32.672Z,27.47
2018-11-10T09:13:00.022Z,28.10
2018-11-10T09:15:27.177Z,26.27
2018-11-10T09:17:54.413Z,26.07
2018-11-10T09:20:21.509Z,25.70
2018-11-10T09:22:48.677Z,25.40
2018-11-10T09:25:16.883Z,25.03
2018-11-10T09:27:44.115Z,23.93
2018-11-10T09:30:12.708Z,23.27
2018-11-10T09:32:40.129Z,25.40
2018-11-10T09:35:08.328Z,25.17
2018-11-10T09:37:35.844Z,25.60
2018-11-10T09:40:03.127Z,29.37
2018-11-10T09:42:30.541Z,26.97
2018-11-10T09:44:57.481Z,27.63
2018-11-10T09:47:24.647Z,30.53
2018-11-10T09:49:51.887Z,27.77
2018-11-10T09:52:19.002Z,28.00
2018-11-10T09:54:46.300Z,29.67
2018-11-10T09:57:13.477Z,28.93
2018-11-10T09:59:40.634Z,29.13
2018-11-10T10:02:08.132Z,28.23
2018-11-10T10:04:34.989Z,29.37
2018-11-10T10:07:02.128Z,26.97
2018-11-10T10:09:29.303Z,27.03
2018-11-10T10:11:56.518Z,27.53
2018-11-10T10:14:23.684Z,27.87
2018-11-10T10:16:50.859Z,28.87
2018-11-10T10:19:18.025Z,28.60
2018-11-10T10:21:45.213Z,28.37
2018-11-10T10:24:12.333Z,27.13
2018-11-10T10:26:39.517Z,26.73
2018-11-10T10:29:06.778Z,26.00
2018-11-10T10:31:33.911Z,26.80
2018-11-10T10:34:01.200Z,26.30
2018-11-10T10:36:28.306Z,25.43
2018-11-10T10:38:55.472Z,26.40
2018-11-10T10:41:22.637Z,26.20
2018-11-10T10:43:49.808Z,26.70
2018-11-10T10:46:17.086Z,26.87
2018-11-10T10:48:44.313Z,26.93
2018-11-10T10:51:11.461Z,25.13
2018-11-10T10:53:38.626Z,26.03
2018-11-10T10:56:05.985Z,27.10
2018-11-10T10:58:33.088Z,27.53
2018-11-10T11:01:06.039Z,26.73
2018-11-10T11:03:39.060Z,26.83
2018-11-10T11:06:06.229Z,27.87
2018-11-10T11:08:33.420Z,26.20
2018-11-10T11:11:00.756Z,26.27
2018-11-10T11:13:28.111Z,25.00
2018-11-10T11:15:55.373Z,25.73
2018-11-10T11:18:22.456Z,26.53
2018-11-10T11:20:49.608Z,24.57
2018-11-10T11:23:16.764Z,25.47
2018-11-10T11:25:43.938Z,24.43
2018-11-10T11:28:11.146Z,25.07
2018-11-10T11:30:38.340Z,25.00
2018-11-10T11:33:05.528Z,23.60
2018-11-10T11:35:32.693Z,24.87
2018-11-10T11:37:59.852Z,23.03
2018-11-10T11:40:27.020Z,25.33
2018-11-10T11:42:54.479Z,22.93
2018-11-10T11:45:21.631Z,23.47
2018-11-10T11:47:48.788Z,24.00
2018-11-10T11:50:16.198Z,23.83
2018-11-10T11:52:43.968Z,24.27
2018-11-10T11:55:11.753Z,21.80
2018-11-10T11:57:39.131Z,22.97
2018-11-10T12:00:07.322Z,22.93
2018-11-10T12:02:34.495Z,21.30
2018-11-10T12:05:01.672Z,21.63
2018-11-10T12:07:28.881Z,23.23
2018-11-10T12:09:56.041Z,22.73
2018-11-10T12:12:23.184Z,20.37
2018-11-10T12:14:50.484Z,22.17
2018-11-10T12:17:17.657Z,21.37
2018-11-10T12:19:44.840Z,23.23
2018-11-10T12:22:12.179Z,21.37
2018-11-10T12:24:39.140Z,22.60
2018-11-10T12:27:06.609Z,22.80
2018-11-10T12:29:33.886Z,23.67
2018-11-10T12:32:01.146Z,22.73
2018-11-10T12:34:28.364Z,22.80
2018-11-10T12:36:55.603Z,23.10
2018-11-10T12:39:22.788Z,21.87
2018-11-10T12:41:50.166Z,21.03
2018-11-10T12:44:17.322Z,22.53
2018-11-10T12:46:44.490Z,21.37
2018-11-10T12:49:11.688Z,21.40
2018-11-10T12:51:38.873Z,20.87
2018-11-10T12:54:06.373Z,21.77
2018-11-10T12:56:33.603Z,20.90
2018-11-10T12:59:00.881Z,21.90
2018-11-10T13:01:28.061Z,21.67
2018-11-10T13:03:55.378Z,21.37
2018-11-10T13:06:22.548Z,21.47
2018-11-10T13:08:49.694Z,21.93
2018-11-10T13:11:16.897Z,22.10
2018-11-10T13:13:44.312Z,22.17
2018-11-10T13:16:11.470Z,21.27
2018-11-10T13:18:38.624Z,22.50
2018-11-10T13:21:05.935Z,21.97
2018-11-10T13:23:33.121Z,20.20
2018-11-10T13:26:00.315Z,21.10
2018-11-10T13:28:27.493Z,21.43
2018-11-10T13:30:54.804Z,21.43
2018-11-10T13:33:21.953Z,21.13
2018-11-10T13:35:49.186Z,22.00
2018-11-10T13:38:16.421Z,21.33
2018-11-10T13:40:43.568Z,21.10
2018-11-10T13:43:10.811Z,21.57
2018-11-10T13:45:38.165Z,21.90
2018-11-10T13:48:05.505Z,21.77
2018-11-10T13:50:32.715Z,21.93
2018-11-10T13:53:00.337Z,21.90
2018-11-10T13:55:27.040Z,19.90
2018-11-10T13:57:54.205Z,18.57
2018-11-10T14:00:21.362Z,21.90
2018-11-10T14:02:48.583Z,20.50
2018-11-10T14:05:15.759Z,21.00
2018-11-10T14:07:42.939Z,20.60
2018-11-10T14:10:11.685Z,19.80
2018-11-10T14:12:39.463Z,20.53
2018-11-10T14:15:06.605Z,19.57
2018-11-10T14:17:33.801Z,19.77
2018-11-10T14:20:00.989Z,18.43
2018-11-10T14:22:28.140Z,18.97
2018-11-10T14:24:55.312Z,19.40
2018-11-10T14:27:22.534Z,19.23
2018-11-10T14:29:49.809Z,20.13
2018-11-10T14:32:16.964Z,19.97
2018-11-10T14:34:44.151Z,19.27
2018-11-10T14:37:11.341Z,19.43
2018-11-10T14:39:38.500Z,19.47
2018-11-10T14:42:05.676Z,20.20
2018-11-10T14:44:32.836Z,21.00
2018-11-10T14:47:00.109Z,19.67
2018-11-10T14:49:27.264Z,21.20
2018-11-10T14:51:54.413Z,20.90
2018-11-10T14:54:21.612Z,19.77
2018-11-10T14:56:48.771Z,19.40
2018-11-10T14:59:15.949Z,20.67
2018-11-10T15:01:43.120Z,20.20
2018-11-10T15:04:10.321Z,20.60
2018-11-10T15:06:37.476Z,21.27
2018-11-10T15:09:05.489Z,20.13
2018-11-10T15:11:32.792Z,20.40
2018-11-10T15:14:00.051Z,19.57
2018-11-10T15:16:27.332Z,20.30
2018-11-10T15:18:54.480Z,21.67
2018-11-10T15:21:21.660Z,20.60
2018-11-10T15:23:48.815Z,19.93
2018-11-10T15:26:16.012Z,20.47
2018-11-10T15:28:43.285Z,21.90
2018-11-10T15:31:10.437Z,21.07
2018-11-10T15:33:37.628Z,20.13
2018-11-10T15:36:04.829Z,21.67
2018-11-10T15:38:32.037Z,20.83
2018-11-10T15:40:59.259Z,22.20
2018-11-10T15:43:26.412Z,20.97
2018-11-10T15:45:53.632Z,22.00
2018-11-10T15:48:20.796Z,21.43
2018-11-10T15:50:48.143Z,20.37
2018-11-10T15:53:16.268Z,21.53
2018-11-10T15:55:43.446Z,22.23
2018-11-10T15:58:10.637Z,22.20
2018-11-10T16:00:37.820Z,23.10
2018-11-10T16:03:05.034Z,21.23
2018-11-10T16:05:32.228Z,22.47
2018-11-10T16:07:59.445Z,23.27
2018-11-10T16:10:26.727Z,21.83
2018-11-10T16:12:53.856Z,24.10
2018-11-10T16:15:21.029Z,26.53
2018-11-10T16:17:48.228Z,30.10
2018-11-10T16:20:16.750Z,30.60
2018-11-10T16:22:45.653Z,48.33
2018-11-10T16:25:12.829Z,55.50
2018-11-10T16:27:40.020Z,45.33
2018-11-10T16:30:08.817Z,40.23
2018-11-10T16:32:36.068Z,24.23
2018-11-10T16:35:04.517Z,25.30
2018-11-10T16:37:31.677Z,25.47
2018-11-10T16:39:58.848Z,26.07
2018-11-10T16:42:26.040Z,29.77
2018-11-10T16:44:53.243Z,28.80
2018-11-10T16:47:20.424Z,29.97
2018-11-10T16:49:47.596Z,32.53
2018-11-10T16:52:14.841Z,30.57
2018-11-10T16:54:42.014Z,30.80
2018-11-10T16:57:09.197Z,27.00
2018-11-10T16:59:36.377Z,30.00
2018-11-10T17:02:03.582Z,29.73
2018-11-10T17:04:30.779Z,29.13
2018-11-10T17:06:57.963Z,26.53
2018-11-10T17:09:25.129Z,25.07
2018-11-10T17:11:52.321Z,25.80
2018-11-10T17:14:19.570Z,25.67
2018-11-10T17:16:46.726Z,28.70
2018-11-10T17:19:13.908Z,28.33
2018-11-10T17:21:41.168Z,25.20
2018-11-10T17:24:08.310Z,26.27
2018-11-10T17:26:35.484Z,26.90
2018-11-10T17:29:02.644Z,25.83
2018-11-10T17:31:29.802Z,27.10
2018-11-10T17:33:57.168Z,27.70
2018-11-10T17:36:24.336Z,26.93
2018-11-10T17:38:51.575Z,27.03
2018-11-10T17:41:18.693Z,27.90
2018-11-10T17:43:46.174Z,29.23
2018-11-10T17:46:13.332Z,31.03
2018-11-10T17:48:40.536Z,29.50
2018-11-10T17:51:07.692Z,28.37
2018-11-10T17:53:34.851Z,27.83
2018-11-10T17:56:02.012Z,28.47
2018-11-10T17:58:29.193Z,27.67
2018-11-10T18:00:56.340Z,29.17
2018-11-10T18:03:23.539Z,25.03
2018-11-10T18:05:50.784Z,24.97
2018-11-10T18:08:17.969Z,25.20
2018-11-10T18:10:45.148Z,23.40
2018-11-10T18:13:12.326Z,21.87
2018-11-10T18:15:39.471Z,23.40
2018-11-10T18:18:06.634Z,22.63
2018-11-10T18:20:33.790Z,21.77
2018-11-10T18:23:00.960Z,24.63
2018-11-10T18:25:28.226Z,23.70
2018-11-10T18:27:55.304Z,25.10
2018-11-10T18:30:22.468Z,22.70
2018-11-10T18:32:49.624Z,21.97
2018-11-10T18:35:16.793Z,22.87
2018-11-10T18:37:43.944Z,22.73
2018-11-10T18:40:11.207Z,24.07
2018-11-10T18:42:38.375Z,21.60
2018-11-10T18:45:06.133Z,22.73
2018-11-10T18:47:33.280Z,21.50
2018-11-10T18:50:00.451Z,21.20
2018-11-10T18:52:27.692Z,22.40
2018-11-10T18:54:54.792Z,23.10
2018-11-10T18:57:22.091Z,22.70
2018-11-10T18:59:49.124Z,22.37
2018-11-10T19:02:16.273Z,22.33
2018-11-10T19:04:43.435Z,22.33
2018-11-10T19:07:10.880Z,25.33
2018-11-10T19:09:38.024Z,25.63
2018-11-10T19:12:05.195Z,23.93
2018-11-10T19:14:32.344Z,22.43
2018-11-10T19:16:59.509Z,22.23
2018-11-10T19:19:26.696Z,24.03
2018-11-10T19:21:53.845Z,27.13
2018-11-10T19:24:21.002Z,25.13
2018-11-10T19:26:48.176Z,25.10
2018-11-10T19:29:15.352Z,24.03
2018-11-10T19:31:42.521Z,25.80
2018-11-10T19:34:09.694Z,22.33
2018-11-10T19:36:36.872Z,21.77
2018-11-10T19:39:05.764Z,25.43
2018-11-10T19:41:32.928Z,22.47
2018-11-10T19:44:00.096Z,25.47
2018-11-10T19:46:27.260Z,24.17
2018-11-10T19:48:54.441Z,24.30
2018-11-10T19:51:21.757Z,25.30
2018-11-10T19:53:48.755Z,28.43
2018-11-10T19:56:15.903Z,26.27
2018-11-10T19:58:43.056Z,24.60
2018-11-10T20:01:10.633Z,25.77
2018-11-10T20:03:37.908Z,25.17
2018-11-10T20:06:05.099Z,25.43
2018-11-10T20:08:32.413Z,23.47
2018-11-10T20:10:59.581Z,23.57
2018-11-10T20:13:26.784Z,24.63
2018-11-10T20:15:53.961Z,26.63
2018-11-10T20:18:21.115Z,26.07
2018-11-10T20:20:48.280Z,26.37
2018-11-10T20:23:15.484Z,23.77
2018-11-10T20:25:42.652Z,24.20
2018-11-10T20:28:09.820Z,24.13
2018-11-10T20:30:36.996Z,21.90
2018-11-10T20:33:04.267Z,22.10
2018-11-10T20:35:31.424Z,21.77
2018-11-10T20:37:58.581Z,21.87
2018-11-10T20:40:25.756Z,21.93
2018-11-10T20:42:52.923Z,21.50
2018-11-10T20:45:20.413Z,23.17
2018-11-10T20:47:47.563Z,22.47
2018-11-10T20:50:15.167Z,21.87
2018-11-10T20:52:42.325Z,22.67
2018-11-10T20:55:10.063Z,21.50
2018-11-10T20:57:37.582Z,21.23
2018-11-10T21:00:06.070Z,23.97
2018-11-10T21:02:33.169Z,24.67
2018-11-10T21:05:00.315Z,23.63
2018-11-10T21:07:27.484Z,25.37
2018-11-10T21:09:54.643Z,24.37
2018-11-10T21:12:21.815Z,23.73
2018-11-10T21:14:48.945Z,23.53
2018-11-10T21:17:16.089Z,23.83
2018-11-10T21:19:43.265Z,22.27
2018-11-10T21:22:11.949Z,22.03
2018-11-10T21:24:39.112Z,23.17
2018-11-10T21:27:06.280Z,23.03
2018-11-10T21:29:33.564Z,22.73
2018-11-10T21:32:00.657Z,23.67
2018-11-10T21:34:28.093Z,22.03
2018-11-10T21:36:55.241Z,22.37
2018-11-10T21:39:22.396Z,21.10
2018-11-10T21:41:49.563Z,21.97
2018-11-10T21:44:16.701Z,21.00
2018-11-10T21:46:43.856Z,20.63
2018-11-10T21:49:11.068Z,21.17
2018-11-10T21:51:38.184Z,23.03
2018-11-10T21:54:05.356Z,22.67
2018-11-10T21:56:32.516Z,21.47
2018-11-10T21:58:59.680Z,22.37
2018-11-10T22:01:26.842Z,22.40
2018-11-10T22:03:54.011Z,22.83
2018-11-10T22:06:21.174Z,22.17
2018-11-10T22:08:48.340Z,22.13
2018-11-10T22:11:15.520Z,20.87
2018-11-10T22:13:42.693Z,21.23
2018-11-10T22:16:09.852Z,20.03
2018-11-10T22:18:37.053Z,24.03
2018-11-10T22:21:04.260Z,22.80
2018-11-10T22:23:31.424Z,21.83
2018-11-10T22:25:58.561Z,21.17
2018-11-10T22:28:25.735Z,22.60
2018-11-10T22:30:52.921Z,21.77
2018-11-10T22:33:20.051Z,21.07
2018-11-10T22:35:47.188Z,21.80
2018-11-10T22:38:14.345Z,22.23
2018-11-10T22:40:41.517Z,23.67
2018-11-10T22:43:08.661Z,23.87
2018-11-10T22:45:35.832Z,22.67
2018-11-10T22:48:03.122Z,22.60
2018-11-10T22:50:30.219Z,23.13
2018-11-10T22:52:57.400Z,22.80
2018-11-10T22:55:24.559Z,22.30
2018-11-10T22:57:51.744Z,23.90
2018-11-10T23:00:23.092Z,23.93
2018-11-10T23:02:51.422Z,25.23
2018-11-10T23:05:19.216Z,22.63
2018-11-10T23:07:46.354Z,22.93
2018-11-10T23:10:14.148Z,22.57
2018-11-10T23:12:41.899Z,23.27
2018-11-10T23:15:09.221Z,23.27
2018-11-10T23:17:36.526Z,21.77
2018-11-10T23:20:04.455Z,21.63
2018-11-10T23:22:31.637Z,23.20
2018-11-10T23:24:58.856Z,22.50
2018-11-10T23:27:26.033Z,21.33
2018-11-10T23:29:53.192Z,22.43
2018-11-10T23:32:20.390Z,21.30
2018-11-10T23:34:47.548Z,21.97
2018-11-10T23:37:14.699Z,22.10
2018-11-10T23:39:41.936Z,22.87
2018-11-10T23:42:09.096Z,23.87
2018-11-10T23:44:36.256Z,23.70
2018-11-10T23:47:03.589Z,24.03
2018-11-10T23:49:30.770Z,23.17
2018-11-10T23:51:57.938Z,24.37
2018-11-10T23:54:25.101Z,23.73
2018-11-10T23:56:52.265Z,23.07
2018-11-10T23:59:19.433Z,22.07
